createdAt,value
2022-09-02T00:01:52.481Z,101170.91
2022-09-02T00:05:54.528Z,101176.50
2022-09-02T00:09:57.046Z,101169.25
2022-09-02T00:14:02.920Z,101167.09
2022-09-02T00:18:07.013Z,101169.16
2022-09-02T00:22:16.366Z,101171.13
2022-09-02T00:26:19.554Z,101173.78
2022-09-02T00:30:21.639Z,101169.50
2022-09-02T00:34:24.555Z,101175.44
2022-09-02T00:38:26.737Z,101171.28
2022-09-02T00:42:29.198Z,101173.34
2022-09-02T00:46:33.400Z,101174.72
2022-09-02T00:50:37.325Z,101173.72
2022-09-02T00:54:45.704Z,101179.00
2022-09-02T00:58:51.240Z,101182.44
2022-09-02T01:02:57.398Z,101186.22
2022-09-02T01:06:59.970Z,101191.56
2022-09-02T01:11:06.441Z,101185.88
2022-09-02T01:15:12.044Z,101183.41
2022-09-02T01:19:25.461Z,101178.84
2022-09-02T01:23:32.381Z,101184.88
2022-09-02T01:27:37.435Z,101181.41
2022-09-02T01:31:39.908Z,101174.56
2022-09-02T01:35:42.983Z,101167.63
2022-09-02T01:39:49.946Z,101174.00
2022-09-02T01:43:51.995Z,101179.47
2022-09-02T01:47:54.485Z,101180.91
2022-09-02T01:51:56.807Z,101179.81
2022-09-02T01:56:00.071Z,101174.69
2022-09-02T02:00:07.717Z,101174.47
2022-09-02T02:04:16.296Z,101177.28
2022-09-02T02:08:20.083Z,101174.38
2022-09-02T02:12:22.804Z,101182.31
2022-09-02T02:16:25.603Z,101182.38
2022-09-02T02:20:28.024Z,101180.66
2022-09-02T02:24:30.186Z,101174.03
2022-09-02T02:28:32.489Z,101175.09
2022-09-02T02:32:39.579Z,101171.03
2022-09-02T02:36:43.119Z,101165.34
2022-09-02T02:40:45.600Z,101175.78
2022-09-02T02:44:48.034Z,101176.13
2022-09-02T02:48:50.196Z,101171.09
2022-09-02T02:52:55.046Z,101185.81
2022-09-02T02:56:59.041Z,101171.88
2022-09-02T03:01:02.064Z,101170.28
2022-09-02T03:05:07.903Z,101166.69
2022-09-02T03:09:10.718Z,101170.00
2022-09-02T03:13:15.459Z,101181.06
2022-09-02T03:17:20.147Z,101177.22
2022-09-02T03:21:23.226Z,101178.84
2022-09-02T03:25:32.242Z,101177.63
2022-09-02T03:29:41.078Z,101182.16
2022-09-02T03:33:44.107Z,101186.63
2022-09-02T03:37:47.874Z,101191.19
2022-09-02T03:41:50.491Z,101192.25
2022-09-02T03:45:53.237Z,101196.66
2022-09-02T03:49:57.402Z,101202.72
2022-09-02T03:54:00.318Z,101210.75
2022-09-02T03:58:07.857Z,101208.44
2022-09-02T04:02:12.790Z,101209.06
2022-09-02T04:06:20.145Z,101217.00
2022-09-02T04:10:22.870Z,101217.78
2022-09-02T04:14:25.752Z,101224.59
2022-09-02T04:18:28.337Z,101226.94
2022-09-02T04:22:35.419Z,101228.66
2022-09-02T04:26:44.979Z,101233.75
2022-09-02T04:30:49.822Z,101244.69
2022-09-02T04:34:52.164Z,101243.25
2022-09-02T04:38:56.233Z,101240.97
2022-09-02T04:43:01.116Z,101241.38
2022-09-02T04:47:03.967Z,101234.81
2022-09-02T04:51:10.003Z,101228.47
2022-09-02T04:55:13.751Z,101230.47
2022-09-02T04:59:16.254Z,101229.00
2022-09-02T05:03:28.590Z,101238.97
2022-09-02T05:07:31.730Z,101235.91
2022-09-02T05:11:35.345Z,101232.72
2022-09-02T05:15:41.039Z,101239.84
2022-09-02T05:19:46.008Z,101249.59
2022-09-02T05:23:54.646Z,101256.84
2022-09-02T05:27:58.599Z,101255.22
2022-09-02T05:32:00.987Z,101271.97
2022-09-02T05:36:05.150Z,101278.41
2022-09-02T05:40:08.258Z,101275.94
2022-09-02T05:44:13.411Z,101280.41
2022-09-02T05:48:34.170Z,101294.81
2022-09-02T05:52:36.624Z,101324.44
2022-09-02T05:56:45.077Z,101314.97
2022-09-02T06:00:49.800Z,101328.91
2022-09-02T06:04:54.842Z,101327.78
2022-09-02T06:09:01.017Z,101340.78
2022-09-02T06:13:03.572Z,101351.00
2022-09-02T06:17:09.433Z,101344.97
2022-09-02T06:21:21.099Z,101349.78
2022-09-02T06:25:26.831Z,101356.47
2022-09-02T06:29:31.447Z,101370.00
2022-09-02T06:33:35.463Z,101372.56
2022-09-02T06:37:37.646Z,101370.44
2022-09-02T06:41:41.998Z,101386.00
2022-09-02T06:45:47.167Z,101389.75
2022-09-02T06:49:49.877Z,101397.25
2022-09-02T06:53:54.405Z,101395.34
2022-09-02T06:57:58.955Z,101405.91
2022-09-02T07:02:01.245Z,101404.75
2022-09-02T07:06:09.791Z,101402.06
2022-09-02T07:10:16.098Z,101398.91
2022-09-02T07:14:25.183Z,101406.94
2022-09-02T07:18:29.574Z,101407.31
2022-09-02T07:22:32.306Z,101401.28
2022-09-02T07:26:37.678Z,101405.44
2022-09-02T07:30:43.411Z,101410.38
2022-09-02T07:34:49.521Z,101409.94
2022-09-02T07:38:53.848Z,101405.34
2022-09-02T07:47:06.778Z,101410.16
2022-09-02T07:51:12.958Z,101412.59
2022-09-02T07:55:16.157Z,101406.31
2022-09-02T07:59:21.882Z,101409.59
2022-09-02T08:03:27.699Z,101410.63
2022-09-02T08:07:32.126Z,101407.94
2022-09-02T08:11:37.407Z,101408.78
2022-09-02T08:15:40.186Z,101402.09
2022-09-02T08:19:42.445Z,101404.69
2022-09-02T08:23:48.140Z,101400.31
2022-09-02T08:27:50.497Z,101400.72
2022-09-02T08:31:54.133Z,101401.09
2022-09-02T08:35:56.867Z,101394.41
2022-09-02T08:39:59.218Z,101410.75
2022-09-02T08:44:02.562Z,101397.78
2022-09-02T08:48:45.379Z,101397.16
2022-09-02T08:53:04.930Z,101391.53
2022-09-02T08:57:08.000Z,101384.91
2022-09-02T09:01:29.231Z,101386.88
2022-09-02T09:06:00.892Z,101385.97
2022-09-02T09:10:37.303Z,101382.16
2022-09-02T09:14:51.354Z,101378.25
2022-09-02T09:19:11.789Z,101361.97
2022-09-02T09:23:20.062Z,101363.44
2022-09-02T09:27:24.651Z,101370.97
2022-09-02T09:31:32.626Z,101363.06
2022-09-02T09:35:50.801Z,101364.63
2022-09-02T09:39:53.797Z,101363.66
2022-09-02T09:43:57.032Z,101359.44
2022-09-02T09:48:17.209Z,101352.31
2022-09-02T09:52:28.550Z,101361.72
2022-09-02T09:56:37.311Z,101357.72
2022-09-02T10:00:41.569Z,101352.16
2022-09-02T10:04:44.189Z,101355.09
2022-09-02T10:09:25.115Z,101342.16
2022-09-02T10:13:32.520Z,101335.63
2022-09-02T10:18:14.857Z,101334.13
2022-09-02T10:22:48.565Z,101325.56
2022-09-02T10:27:02.609Z,101325.75
2022-09-02T10:31:38.966Z,101325.16
2022-09-02T10:35:48.911Z,101329.84
2022-09-02T10:40:17.418Z,101332.16
2022-09-02T10:44:28.198Z,101331.66
2022-09-02T10:49:04.761Z,101318.06
2022-09-02T10:53:23.376Z,101323.16
2022-09-02T10:57:31.579Z,101317.75
2022-09-02T11:02:12.706Z,101305.78
2022-09-02T11:06:35.303Z,101304.94
2022-09-02T11:11:01.798Z,101301.97
2022-09-02T11:15:10.739Z,101303.44
2022-09-02T11:19:35.751Z,101297.78
2022-09-02T11:24:04.366Z,101303.59
2022-09-02T11:28:29.437Z,101309.09
2022-09-02T11:32:39.442Z,101302.84
2022-09-02T11:36:43.343Z,101295.22
2022-09-02T11:41:32.889Z,101299.28
2022-09-02T11:45:44.204Z,101293.53
2022-09-02T11:50:16.858Z,101292.63
2022-09-02T11:54:21.164Z,101281.81
2022-09-02T11:58:34.947Z,101278.81
2022-09-02T12:02:45.925Z,101270.66
2022-09-02T12:07:08.651Z,101272.41
2022-09-02T12:11:41.818Z,101262.66
2022-09-02T12:15:45.619Z,101256.75
2022-09-02T12:19:50.105Z,101254.44
2022-09-02T12:23:55.211Z,101255.41
2022-09-02T12:28:27.458Z,101257.53
2022-09-02T12:32:45.391Z,101248.09
2022-09-02T12:36:56.229Z,101261.03
2022-09-02T12:41:07.889Z,101260.22
2022-09-02T12:45:26.833Z,101261.06
2022-09-02T12:49:33.802Z,101248.09
2022-09-02T12:53:42.307Z,101253.13
2022-09-02T12:57:47.536Z,101247.16
2022-09-02T13:02:04.870Z,101245.91
2022-09-02T13:06:26.739Z,101245.47
2022-09-02T13:10:40.763Z,101247.13
2022-09-02T13:15:07.440Z,101244.47
2022-09-02T13:19:47.176Z,101243.38
2022-09-02T13:24:02.433Z,101233.97
2022-09-02T13:28:17.344Z,101233.63
2022-09-02T13:32:19.402Z,101230.72
2022-09-02T13:36:28.367Z,101225.22
2022-09-02T13:40:33.914Z,101217.94
2022-09-02T13:44:36.227Z,101205.34
2022-09-02T13:48:40.577Z,101199.59
2022-09-02T13:53:34.599Z,101201.19
2022-09-02T13:57:12.131Z,101195.38
2022-09-02T14:01:35.827Z,101204.34
2022-09-02T14:05:45.344Z,101201.34
2022-09-02T14:09:50.954Z,101190.97
2022-09-02T14:13:54.901Z,101195.31
2022-09-02T14:18:18.375Z,101192.81
2022-09-02T14:22:28.925Z,101193.34
2022-09-02T14:26:38.507Z,101195.50
2022-09-02T14:30:41.628Z,101194.75
2022-09-02T14:34:45.914Z,101193.72
2022-09-02T14:38:47.921Z,101194.75
2022-09-02T14:42:57.551Z,101193.78
2022-09-02T14:47:15.402Z,101185.28
2022-09-02T14:51:19.319Z,101183.16
2022-09-02T14:55:41.286Z,101184.78
2022-09-02T14:59:43.615Z,101187.38
2022-09-02T15:03:47.439Z,101179.84
2022-09-02T15:07:49.705Z,101179.22
2022-09-02T15:11:53.927Z,101175.72
2022-09-02T15:15:57.344Z,101182.31
2022-09-02T15:19:59.442Z,101177.28
2022-09-02T15:24:03.058Z,101168.03
2022-09-02T15:28:05.275Z,101165.44
2022-09-02T15:32:07.706Z,101164.75
2022-09-02T15:36:13.148Z,101158.81
2022-09-02T15:40:16.047Z,101161.38
2022-09-02T15:44:18.485Z,101163.94
2022-09-02T15:48:20.847Z,101163.09
2022-09-02T15:52:23.793Z,101174.81
2022-09-02T15:56:28.065Z,101180.13
2022-09-02T16:00:32.158Z,101177.38
2022-09-02T16:04:38.623Z,101173.19
2022-09-02T16:08:40.883Z,101173.81
2022-09-02T16:12:43.082Z,101171.69
2022-09-02T16:16:45.692Z,101174.25
2022-09-02T16:20:48.240Z,101174.75
2022-09-02T16:24:51.119Z,101174.41
2022-09-02T16:29:00.588Z,101175.69
2022-09-02T16:33:02.687Z,101176.25
2022-09-02T16:37:06.467Z,101180.44
2022-09-02T16:41:43.909Z,101173.81
2022-09-02T16:45:46.582Z,101175.03
2022-09-02T16:49:48.672Z,101178.97
2022-09-02T16:53:56.279Z,101185.28
2022-09-02T16:58:03.185Z,101189.97
2022-09-02T17:02:05.821Z,101184.16
2022-09-02T17:06:09.007Z,101178.63
2022-09-02T17:10:11.666Z,101181.31
2022-09-02T17:14:16.907Z,101191.63
2022-09-02T17:18:19.212Z,101189.59
2022-09-02T17:22:21.281Z,101185.63
2022-09-02T17:26:26.648Z,101191.00
2022-09-02T17:30:28.987Z,101188.72
2022-09-02T17:34:33.456Z,101187.19
2022-09-02T17:38:35.552Z,101196.66
2022-09-02T17:42:38.610Z,101199.31
2022-09-02T17:46:42.108Z,101196.69
2022-09-02T17:50:44.380Z,101187.81
2022-09-02T17:54:49.284Z,101193.09
2022-09-02T17:59:19.506Z,101191.00
2022-09-02T18:03:39.523Z,101196.09
2022-09-02T18:07:49.856Z,101192.97
2022-09-02T18:11:53.114Z,101189.38
2022-09-02T18:15:59.005Z,101190.94
2022-09-02T18:20:16.602Z,101191.22
2022-09-02T18:24:35.480Z,101196.09
2022-09-02T18:28:58.828Z,101195.09
2022-09-02T18:33:17.098Z,101184.22
2022-09-02T18:37:40.209Z,101183.44
2022-09-02T18:42:01.207Z,101181.75
2022-09-02T18:46:05.451Z,101182.97
2022-09-02T18:50:11.290Z,101181.53
2022-09-02T18:54:30.866Z,101159.41
2022-09-02T18:59:14.929Z,101176.28
2022-09-02T19:03:17.466Z,101177.56
2022-09-02T19:07:39.722Z,101158.31
2022-09-02T19:11:42.240Z,101165.53
2022-09-02T19:15:44.701Z,101160.75
2022-09-02T19:19:46.743Z,101156.50
2022-09-02T19:23:49.487Z,101156.38
2022-09-02T19:27:55.151Z,101171.78
2022-09-02T19:31:57.501Z,101159.09
2022-09-02T19:35:59.797Z,101164.00
2022-09-02T19:40:08.067Z,101148.38
2022-09-02T19:44:12.684Z,101149.22
2022-09-02T19:48:15.630Z,101161.44
2022-09-02T19:52:21.049Z,101157.81
2022-09-02T19:56:23.396Z,101151.13
2022-09-02T20:00:25.643Z,101146.50
2022-09-02T20:04:29.965Z,101148.44
2022-09-02T20:08:32.654Z,101156.16
2022-09-02T20:12:36.557Z,101155.22
2022-09-02T20:16:38.805Z,101156.63
2022-09-02T20:20:49.659Z,101149.72
2022-09-02T20:24:51.595Z,101135.66
2022-09-02T20:28:59.597Z,101151.69
2022-09-02T20:33:16.747Z,101144.69
2022-09-02T20:37:21.732Z,101150.31
2022-09-02T20:41:34.049Z,101155.00
2022-09-02T20:45:52.744Z,101149.06
2022-09-02T20:50:18.463Z,101131.47
2022-09-02T20:54:31.358Z,101142.91
2022-09-02T20:58:50.915Z,101152.03
2022-09-02T21:03:05.533Z,101131.38
2022-09-02T21:07:26.688Z,101148.03
2022-09-02T21:11:38.142Z,101131.59
2022-09-02T21:15:55.771Z,101149.38
2022-09-02T21:20:09.872Z,101135.06
2022-09-02T21:24:37.632Z,101140.59
2022-09-02T21:28:50.122Z,101145.88
2022-09-02T21:32:57.658Z,101157.56
2022-09-02T21:37:00.535Z,101156.88
2022-09-02T21:41:20.610Z,101167.81
2022-09-02T21:45:44.423Z,101157.41
2022-09-02T21:50:24.024Z,101160.53
2022-09-02T21:54:44.566Z,101147.28
2022-09-02T21:58:49.522Z,101139.75
2022-09-02T22:03:16.394Z,101139.94
2022-09-02T22:07:26.428Z,101123.25
2022-09-02T22:11:32.076Z,101134.69
2022-09-02T22:16:01.516Z,101128.84
2022-09-02T22:20:07.586Z,101118.09
2022-09-02T22:24:10.167Z,101122.34
2022-09-02T22:28:21.143Z,101124.66
2022-09-02T22:37:34.338Z,101129.75
2022-09-02T22:41:45.604Z,101122.38
2022-09-02T22:46:24.851Z,101130.53
2022-09-02T22:50:52.367Z,101124.38
2022-09-02T22:54:56.862Z,101114.34
2022-09-02T22:59:18.242Z,101116.34
2022-09-02T23:03:55.210Z,101117.34
2022-09-02T23:07:57.480Z,101110.25
2022-09-02T23:12:13.267Z,101115.13
2022-09-02T23:16:40.243Z,101115.34
2022-09-02T23:20:51.443Z,101115.34
2022-09-02T23:25:24.575Z,101121.72
2022-09-02T23:29:29.772Z,101121.78
2022-09-02T23:33:53.173Z,101116.53
2022-09-02T23:38:16.619Z,101119.13
2022-09-02T23:42:19.272Z,101116.25
2022-09-02T23:46:52.034Z,101120.94
2022-09-02T23:51:07.128Z,101120.78
2022-09-02T23:55:09.524Z,101118.22
2022-09-02T23:59:35.087Z,101114.06
